Time,TemperatureF,DewpointF,PressureIn,WindDirection,WindDirectionDegrees,WindSpeedMPH,WindSpeedGustMPH,Humidity,HourlyPrecipIn,Conditions,Clouds,dailyrainin,SoftwareType,DateUTC
2013-02-08 00:01:00,50.0,20.0,30.01,NNW,348,4.0,-999.0,30,-99.99,,,-99.99,,2013-02-08 07:01:00,
2013-02-08 00:11:00,50.0,20.0,30.01,NNW,348,4.0,-999.0,30,-99.99,,,-99.99,,2013-02-08 07:11:00,
2013-02-08 00:21:00,50.0,21.0,30.01,NNW,347,0.0,-999.0,31,-99.99,,,-99.99,,2013-02-08 07:21:00,
2013-02-08 00:32:00,52.0,22.0,30.01,SSE,167,4.0,-999.0,30,-99.99,,,-99.99,,2013-02-08 07:32:00,
2013-02-08 00:42:00,52.0,22.0,30.01,SSE,167,4.0,-999.0,30,-99.99,,,-99.99,,2013-02-08 07:42:00,
2013-02-08 00:51:00,52.0,22.0,30.01,SSE,167,4.0,-999.0,30,-99.99,,,-99.99,,2013-02-08 07:51:00,
2013-02-08 01:01:00,49.0,20.0,30.00,WSW,246,3.0,-999.0,32,-99.99,,,-99.99,,2013-02-08 08:01:00,
2013-02-08 01:11:00,49.0,20.0,30.00,WSW,246,3.0,-999.0,32,-99.99,,,-99.99,,2013-02-08 08:11:00,
2013-02-08 01:21:00,49.0,20.0,30.00,WSW,246,3.0,-999.0,32,-99.99,,,-99.99,,2013-02-08 08:21:00,
2013-02-08 01:32:00,48.0,21.0,30.00,West,275,1.0,-999.0,34,-99.99,,,-99.99,,2013-02-08 08:32:00,
2013-02-08 01:42:00,48.0,21.0,30.00,West,275,1.0,-999.0,34,-99.99,,,-99.99,,2013-02-08 08:42:00,
2013-02-08 01:52:00,47.0,21.0,30.00,WNW,301,4.0,-999.0,35,-99.99,,,-99.99,,2013-02-08 08:52:00,
2013-02-08 02:03:00,48.0,21.0,29.99,WNW,284,4.0,-999.0,34,-99.99,,,-99.99,,2013-02-08 09:03:00,
2013-02-08 02:11:00,48.0,21.0,29.99,WNW,284,4.0,-999.0,34,-99.99,,,-99.99,,2013-02-08 09:11:00,
2013-02-08 02:21:00,49.0,22.0,29.99,WSW,238,4.0,-999.0,34,-99.99,,,-99.99,,2013-02-08 09:21:00,
2013-02-08 02:31:00,50.0,23.0,29.98,West,277,2.0,-999.0,34,-99.99,,,-99.99,,2013-02-08 09:31:00,
2013-02-08 02:42:00,50.0,23.0,29.98,West,277,2.0,-999.0,34,-99.99,,,-99.99,,2013-02-08 09:42:00,
2013-02-08 02:52:00,49.0,23.0,29.98,North,5,6.0,-999.0,35,-99.99,,,-99.99,,2013-02-08 09:52:00,
2013-02-08 03:01:00,49.0,23.0,29.98,North,5,6.0,-999.0,35,-99.99,,,-99.99,,2013-02-08 10:01:00,
2013-02-08 03:11:00,49.0,23.0,29.98,North,5,6.0,-999.0,35,-99.99,,,-99.99,,2013-02-08 10:11:00,
2013-02-08 03:22:00,49.0,23.0,29.97,NNE,13,6.0,-999.0,35,-99.99,,,-99.99,,2013-02-08 10:22:00,
2013-02-08 03:31:00,48.0,22.0,29.97,North,5,1.0,-999.0,35,-99.99,,,-99.99,,2013-02-08 10:31:00,
2013-02-08 03:42:00,48.0,22.0,29.97,North,5,1.0,-999.0,35,-99.99,,,-99.99,,2013-02-08 10:42:00,
2013-02-08 03:52:00,49.0,23.0,29.97,SW,230,4.0,-999.0,35,-99.99,,,-99.99,,2013-02-08 10:52:00,
2013-02-08 04:01:00,50.0,23.0,29.96,West,265,4.0,-999.0,34,-99.99,,,-99.99,,2013-02-08 11:01:00,
2013-02-08 04:11:00,50.0,23.0,29.96,West,265,4.0,-999.0,34,-99.99,,,-99.99,,2013-02-08 11:11:00,
2013-02-08 04:21:00,50.0,23.0,29.96,West,278,5.0,-999.0,34,-99.99,,,-99.99,,2013-02-08 11:21:00,
2013-02-08 04:32:00,49.0,23.0,29.94,WNW,285,6.0,-999.0,35,-99.99,,,-99.99,,2013-02-08 11:32:00,
2013-02-08 04:42:00,49.0,23.0,29.94,WNW,285,6.0,-999.0,35,-99.99,,,-99.99,,2013-02-08 11:42:00,
2013-02-08 04:52:00,50.0,23.0,29.95,West,264,5.0,-999.0,35,-99.99,,,-99.99,,2013-02-08 11:52:00,
2013-02-08 05:01:00,50.0,23.0,29.96,West,263,4.0,-999.0,35,-99.99,,,-99.99,,2013-02-08 12:01:00,
2013-02-08 05:11:00,50.0,23.0,29.96,West,263,4.0,-999.0,35,-99.99,,,-99.99,,2013-02-08 12:11:00,
2013-02-08 05:22:00,48.0,23.0,29.95,West,271,3.0,-999.0,37,-99.99,,,-99.99,,2013-02-08 12:22:00,
2013-02-08 05:33:00,48.0,23.0,29.96,West,273,4.0,-999.0,37,-99.99,,,-99.99,,2013-02-08 12:33:00,
2013-02-08 05:42:00,48.0,23.0,29.96,West,273,4.0,-999.0,37,-99.99,,,-99.99,,2013-02-08 12:42:00,
2013-02-08 05:52:00,46.0,22.0,29.95,West,273,2.0,-999.0,39,-99.99,,,-99.99,,2013-02-08 12:52:00,
2013-02-08 06:01:00,47.0,23.0,29.95,West,270,4.0,-999.0,39,-99.99,,,-99.99,,2013-02-08 13:01:00,
2013-02-08 06:11:00,47.0,23.0,29.95,West,270,4.0,-999.0,39,-99.99,,,-99.99,,2013-02-08 13:11:00,
2013-02-08 06:22:00,49.0,24.0,29.94,West,268,5.0,-999.0,37,-99.99,,,-99.99,,2013-02-08 13:22:00,
2013-02-08 06:32:00,49.0,23.0,29.95,West,263,4.0,-999.0,36,-99.99,,,-99.99,,2013-02-08 13:32:00,
2013-02-08 06:42:00,49.0,23.0,29.95,West,263,4.0,-999.0,36,-99.99,,,-99.99,,2013-02-08 13:42:00,
2013-02-08 06:52:00,50.0,24.0,29.95,South,177,6.0,-999.0,36,-99.99,,,-99.99,,2013-02-08 13:52:00,
2013-02-08 07:02:00,49.0,25.0,29.95,WNW,284,5.0,-999.0,38,-99.99,,,-99.99,,2013-02-08 14:02:00,
2013-02-08 07:11:00,49.0,25.0,29.95,WNW,284,5.0,-999.0,38,-99.99,,,-99.99,,2013-02-08 14:11:00,
2013-02-08 07:22:00,48.0,25.0,29.96,NNW,330,5.0,-999.0,40,-99.99,,,-99.99,,2013-02-08 14:22:00,
2013-02-08 07:32:00,48.0,25.0,29.96,NNE,15,4.0,-999.0,41,-99.99,,,-99.99,,2013-02-08 14:32:00,
2013-02-08 07:42:00,48.0,25.0,29.96,NNE,15,4.0,-999.0,41,-99.99,,,-99.99,,2013-02-08 14:42:00,
2013-02-08 07:52:00,49.0,26.0,29.96,NE,36,4.0,-999.0,40,-99.99,,,-99.99,,2013-02-08 14:52:00,
2013-02-08 08:02:00,51.0,26.0,29.95,WNW,290,3.0,-999.0,37,-99.99,,,-99.99,,2013-02-08 15:02:00,
2013-02-08 08:11:00,51.0,26.0,29.95,WNW,290,3.0,-999.0,37,-99.99,,,-99.99,,2013-02-08 15:11:00,
2013-02-08 08:22:00,51.0,25.0,29.95,West,280,4.0,-999.0,36,-99.99,,,-99.99,,2013-02-08 15:22:00,
2013-02-08 08:32:00,53.0,26.0,29.95,West,281,6.0,-999.0,35,-99.99,,,-99.99,,2013-02-08 15:32:00,
2013-02-08 08:42:00,53.0,26.0,29.95,West,281,6.0,-999.0,35,-99.99,,,-99.99,,2013-02-08 15:42:00,
2013-02-08 08:52:00,56.0,26.0,29.94,SSE,159,4.0,-999.0,31,-99.99,,,-99.99,,2013-02-08 15:52:00,
2013-02-08 09:01:00,55.0,26.0,29.95,South,169,9.0,-999.0,32,-99.99,,,-99.99,,2013-02-08 16:01:00,
2013-02-08 09:11:00,55.0,26.0,29.95,South,169,9.0,-999.0,32,-99.99,,,-99.99,,2013-02-08 16:11:00,
2013-02-08 09:22:00,56.0,26.0,29.95,SE,133,8.0,-999.0,31,-99.99,,,-99.99,,2013-02-08 16:22:00,
2013-02-08 09:32:00,57.0,25.0,29.95,SE,138,9.0,-999.0,29,-99.99,,,-99.99,,2013-02-08 16:32:00,
2013-02-08 09:52:00,57.0,26.0,29.95,South,177,7.0,-999.0,30,-99.99,,,-99.99,,2013-02-08 16:52:00,
2013-02-08 10:03:00,57.0,26.0,29.95,SSW,194,6.0,-999.0,30,-99.99,,,-99.99,,2013-02-08 17:03:00,
2013-02-08 10:12:00,57.0,26.0,29.95,SSW,194,6.0,-999.0,30,-99.99,,,-99.99,,2013-02-08 17:12:00,
2013-02-08 10:22:00,57.0,26.0,29.94,SSW,197,4.0,-999.0,30,-99.99,,,-99.99,,2013-02-08 17:22:00,
2013-02-08 10:32:00,57.0,25.0,29.94,South,184,4.0,-999.0,29,-99.99,,,-99.99,,2013-02-08 17:32:00,
2013-02-08 10:42:00,57.0,25.0,29.94,South,184,4.0,-999.0,29,-99.99,,,-99.99,,2013-02-08 17:42:00,
2013-02-08 10:53:00,57.0,25.0,29.94,South,184,4.0,-999.0,29,-99.99,,,-99.99,,2013-02-08 17:53:00,
2013-02-08 11:02:00,59.0,26.0,29.92,SW,222,3.0,-999.0,28,-99.99,,,-99.99,,2013-02-08 18:02:00,
2013-02-08 11:12:00,59.0,26.0,29.92,SW,222,3.0,-999.0,28,-99.99,,,-99.99,,2013-02-08 18:12:00,
2013-02-08 11:24:00,61.0,27.0,29.92,NNW,345,4.0,-999.0,27,-99.99,,,-99.99,,2013-02-08 18:24:00,
2013-02-08 11:34:00,61.0,27.0,29.91,NNW,340,5.0,-999.0,27,-99.99,,,-99.99,,2013-02-08 18:34:00,
2013-02-08 11:43:00,61.0,27.0,29.91,NNW,340,5.0,-999.0,27,-99.99,,,-99.99,,2013-02-08 18:43:00,
2013-02-08 11:52:00,62.0,27.0,29.90,NNW,342,5.0,-999.0,26,-99.99,,,-99.99,,2013-02-08 18:52:00,
2013-02-08 12:02:00,63.0,26.0,29.88,NNW,348,3.0,-999.0,24,-99.99,,,-99.99,,2013-02-08 19:02:00,
2013-02-08 12:22:00,64.0,24.0,29.87,ENE,78,7.0,-999.0,22,-99.99,,,-99.99,,2013-02-08 19:22:00,
2013-02-08 12:32:00,64.0,24.0,29.86,SSE,165,8.0,-999.0,22,-99.99,,,-99.99,,2013-02-08 19:32:00,
2013-02-08 12:42:00,64.0,24.0,29.86,SSE,165,8.0,-999.0,22,-99.99,,,-99.99,,2013-02-08 19:42:00,
2013-02-08 12:52:00,65.0,24.0,29.84,SE,128,10.0,-999.0,21,-99.99,,,-99.99,,2013-02-08 19:52:00,
2013-02-08 13:02:00,65.0,23.0,29.83,SSE,162,13.0,-999.0,20,-99.99,,,-99.99,,2013-02-08 20:02:00,
2013-02-08 13:11:00,65.0,23.0,29.83,SSE,162,13.0,-999.0,20,-99.99,,,-99.99,,2013-02-08 20:11:00,
2013-02-08 13:22:00,66.0,24.0,29.81,SE,138,14.0,-999.0,20,-99.99,,,-99.99,,2013-02-08 20:22:00,
2013-02-08 13:32:00,66.0,24.0,29.80,SE,144,14.0,-999.0,20,-99.99,,,-99.99,,2013-02-08 20:32:00,
2013-02-08 13:42:00,66.0,24.0,29.80,SE,144,14.0,-999.0,20,-99.99,,,-99.99,,2013-02-08 20:42:00,
2013-02-08 13:52:00,66.0,23.0,29.80,SSE,165,15.0,-999.0,19,-99.99,,,-99.99,,2013-02-08 20:52:00,
2013-02-08 14:02:00,66.0,21.0,29.79,SE,136,14.0,-999.0,18,-99.99,,,-99.99,,2013-02-08 21:02:00,
2013-02-08 14:11:00,66.0,21.0,29.79,SE,136,14.0,-999.0,18,-99.99,,,-99.99,,2013-02-08 21:11:00,
2013-02-08 14:21:00,66.0,21.0,29.79,SE,136,14.0,-999.0,18,-99.99,,,-99.99,,2013-02-08 21:21:00,
2013-02-08 14:32:00,66.0,20.0,29.78,East,93,12.0,-999.0,17,-99.99,,,-99.99,,2013-02-08 21:32:00,
2013-02-08 14:42:00,66.0,20.0,29.78,East,93,12.0,-999.0,17,-99.99,,,-99.99,,2013-02-08 21:42:00,
2013-02-08 14:52:00,67.0,22.0,29.78,SSE,148,12.0,-999.0,18,-99.99,,,-99.99,,2013-02-08 21:52:00,
2013-02-08 15:02:00,67.0,22.0,29.77,SE,134,13.0,-999.0,18,-99.99,,,-99.99,,2013-02-08 22:02:00,
2013-02-08 15:11:00,67.0,22.0,29.77,SE,134,13.0,-999.0,18,-99.99,,,-99.99,,2013-02-08 22:11:00,
2013-02-08 15:22:00,68.0,24.0,29.76,ESE,122,11.0,-999.0,19,-99.99,,,-99.99,,2013-02-08 22:22:00,
2013-02-08 15:32:00,68.0,23.0,29.75,ESE,119,11.0,-999.0,18,-99.99,,,-99.99,,2013-02-08 22:32:00,
2013-02-08 15:42:00,68.0,23.0,29.75,ESE,119,11.0,-999.0,18,-99.99,,,-99.99,,2013-02-08 22:42:00,
2013-02-08 15:52:00,68.0,23.0,29.75,ESE,119,11.0,-999.0,18,-99.99,,,-99.99,,2013-02-08 22:52:00,
2013-02-08 16:01:00,68.0,22.0,29.74,SSE,157,8.0,-999.0,17,-99.99,,,-99.99,,2013-02-08 23:01:00,
2013-02-08 16:11:00,68.0,22.0,29.74,SSE,157,8.0,-999.0,17,-99.99,,,-99.99,,2013-02-08 23:11:00,
2013-02-08 16:21:00,68.0,19.0,29.72,SE,129,13.0,-999.0,15,-99.99,,,-99.99,,2013-02-08 23:21:00,
2013-02-08 16:32:00,69.0,16.0,29.73,SE,140,9.0,-999.0,13,-99.99,,,-99.99,,2013-02-08 23:32:00,
2013-02-08 16:42:00,69.0,16.0,29.73,SE,140,9.0,-999.0,13,-99.99,,,-99.99,,2013-02-08 23:42:00,
2013-02-08 16:52:00,68.0,15.0,29.72,South,183,8.0,-999.0,13,-99.99,,,-99.99,,2013-02-08 23:52:00,
2013-02-08 17:02:00,68.0,17.0,29.72,South,173,7.0,-999.0,14,-99.99,,,-99.99,,2013-02-09 00:02:00,
2013-02-08 17:11:00,68.0,17.0,29.72,South,173,7.0,-999.0,14,-99.99,,,-99.99,,2013-02-09 00:11:00,
2013-02-08 17:21:00,68.0,15.0,29.71,SSE,165,5.0,-999.0,13,-99.99,,,-99.99,,2013-02-09 00:21:00,
2013-02-08 17:32:00,68.0,15.0,29.71,SSE,165,3.0,-999.0,13,-99.99,,,-99.99,,2013-02-09 00:32:00,
2013-02-08 17:42:00,68.0,15.0,29.71,SSE,165,3.0,-999.0,13,-99.99,,,-99.99,,2013-02-09 00:42:00,
2013-02-08 17:52:00,68.0,15.0,29.71,SSE,165,3.0,-999.0,13,-99.99,,,-99.99,,2013-02-09 00:52:00,
2013-02-08 18:01:00,66.0,17.0,29.70,SSE,165,1.0,-999.0,15,-99.99,,,-99.99,,2013-02-09 01:01:00,
2013-02-08 18:11:00,66.0,17.0,29.70,SSE,165,1.0,-999.0,15,-99.99,,,-99.99,,2013-02-09 01:11:00,
2013-02-08 18:22:00,65.0,16.0,29.70,SSE,166,0.0,-999.0,15,-99.99,,,-99.99,,2013-02-09 01:22:00,
2013-02-08 18:32:00,64.0,17.0,29.71,SSE,165,0.0,-999.0,16,-99.99,,,-99.99,,2013-02-09 01:32:00,
2013-02-08 18:42:00,64.0,17.0,29.71,SSE,165,0.0,-999.0,16,-99.99,,,-99.99,,2013-02-09 01:42:00,
2013-02-08 18:52:00,63.0,16.0,29.71,SSE,166,0.0,-999.0,16,-99.99,,,-99.99,,2013-02-09 01:52:00,
2013-02-08 19:01:00,61.0,16.0,29.71,SSE,165,0.0,-999.0,17,-99.99,,,-99.99,,2013-02-09 02:01:00,
2013-02-08 19:11:00,61.0,16.0,29.71,SSE,165,0.0,-999.0,17,-99.99,,,-99.99,,2013-02-09 02:11:00,
2013-02-08 19:21:00,59.0,16.0,29.72,SSE,165,1.0,-999.0,18,-99.99,,,-99.99,,2013-02-09 02:21:00,
2013-02-08 19:32:00,58.0,17.0,29.72,SSE,165,3.0,-999.0,20,-99.99,,,-99.99,,2013-02-09 02:32:00,
2013-02-08 19:42:00,58.0,17.0,29.72,SSE,165,3.0,-999.0,20,-99.99,,,-99.99,,2013-02-09 02:42:00,
2013-02-08 19:52:00,57.0,17.0,29.73,SSE,165,4.0,-999.0,21,-99.99,,,-99.99,,2013-02-09 02:52:00,
2013-02-08 20:02:00,58.0,19.0,29.73,SSE,165,1.0,-999.0,22,-99.99,,,-99.99,,2013-02-09 03:02:00,
2013-02-08 20:11:00,58.0,19.0,29.73,SSE,165,1.0,-999.0,22,-99.99,,,-99.99,,2013-02-09 03:11:00,
2013-02-08 20:21:00,58.0,20.0,29.73,SSE,165,3.0,-999.0,23,-99.99,,,-99.99,,2013-02-09 03:21:00,
2013-02-08 20:32:00,60.0,24.0,29.73,SSE,153,6.0,-999.0,25,-99.99,,,-99.99,,2013-02-09 03:32:00,
2013-02-08 20:42:00,60.0,24.0,29.73,SSE,153,6.0,-999.0,25,-99.99,,,-99.99,,2013-02-09 03:42:00,
2013-02-08 20:52:00,58.0,24.0,29.73,SSE,152,4.0,-999.0,27,-99.99,,,-99.99,,2013-02-09 03:52:00,
2013-02-08 21:02:00,58.0,24.0,29.73,SSE,152,4.0,-999.0,27,-99.99,,,-99.99,,2013-02-09 04:02:00,
2013-02-08 21:12:00,56.0,22.0,29.73,SSE,152,0.0,-999.0,26,-99.99,,,-99.99,,2013-02-09 04:12:00,
2013-02-08 21:23:00,56.0,22.0,29.73,SSE,152,0.0,-999.0,26,-99.99,,,-99.99,,2013-02-09 04:23:00,
2013-02-08 21:32:00,54.0,21.0,29.73,SSE,152,1.0,-999.0,27,-99.99,,,-99.99,,2013-02-09 04:32:00,
2013-02-08 21:42:00,54.0,21.0,29.73,SSE,152,1.0,-999.0,27,-99.99,,,-99.99,,2013-02-09 04:42:00,
2013-02-08 21:52:00,54.0,18.0,29.73,SSE,152,3.0,-999.0,24,-99.99,,,-99.99,,2013-02-09 04:52:00,
2013-02-08 22:02:00,55.0,16.0,29.73,SSE,147,3.0,-999.0,21,-99.99,,,-99.99,,2013-02-09 05:02:00,
2013-02-08 22:12:00,55.0,16.0,29.73,SSE,147,3.0,-999.0,21,-99.99,,,-99.99,,2013-02-09 05:12:00,
2013-02-08 22:22:00,55.0,14.0,29.73,SSE,147,2.0,-999.0,19,-99.99,,,-99.99,,2013-02-09 05:22:00,
2013-02-08 22:32:00,55.0,11.0,29.73,SE,146,1.0,-999.0,17,-99.99,,,-99.99,,2013-02-09 05:32:00,
2013-02-08 22:42:00,55.0,11.0,29.73,SE,146,1.0,-999.0,17,-99.99,,,-99.99,,2013-02-09 05:42:00,
2013-02-08 22:52:00,53.0,8.0,29.73,SE,146,3.0,-999.0,16,-99.99,,,-99.99,,2013-02-09 05:52:00,
2013-02-08 23:01:00,53.0,7.0,29.73,SE,133,5.0,-999.0,15,-99.99,,,-99.99,,2013-02-09 06:01:00,
2013-02-08 23:11:00,53.0,7.0,29.73,SE,133,5.0,-999.0,15,-99.99,,,-99.99,,2013-02-09 06:11:00,
2013-02-08 23:21:00,54.0,6.0,29.73,SE,133,4.0,-999.0,14,-99.99,,,-99.99,,2013-02-09 06:21:00,
2013-02-08 23:32:00,55.0,7.0,29.73,SE,133,4.0,-999.0,14,-99.99,,,-99.99,,2013-02-09 06:32:00,
2013-02-08 23:42:00,55.0,7.0,29.73,SE,133,4.0,-999.0,14,-99.99,,,-99.99,,2013-02-09 06:42:00,
2013-02-08 23:51:00,54.0,7.0,29.72,SE,134,4.0,-999.0,15,-99.99,,,-99.99,,2013-02-09 06:51:00,